Terminal Aerodrome Forecast
Issued by NWS

Home | Current Version | Previous Version | Text Only | Print | Product List | Glossary On
Versions: 1 2 3 4 5 6 7 8 9 10 11 12 13 14 15 16 17 18 19 20
000
FTUS41 KCAR 021124
TAFPQI
TAF
KPQI 021124Z 0212/0312 22010G18KT P6SM SCT025 BKN035
      TEMPO 0212/0214 BKN025
     FM021400 22012G22KT P6SM BKN045
     FM030000 24008KT P6SM BKN050
      AMD LTD TO CLD VIS AND WIND=

USA.gov is the U.S. government's official web portal to all federal, state and local government web resources and services.